Portada
METAR-TAF:

METAR-TAF

Aeropuertos :

Aeropuerto de Växjö-Småland

Växjö, Suecia

latitud: 56-51N, longitud: 014-50E, altitud: 199 m

Observación

El informe se hizo hace 30 minutos, a las 23:20 UTC
Viento 7 kt del sur
Temperatura 8°C
Humedad 93%
Presión 1002 hPa
Visibilidad 10 km o más

METAR: ESMX 062320Z AUTO 17007KT 9999 NCD 08/07 Q1002

Hora: 01:50 (23:50 UTC)


TAF: falta

Observaciones y pronósticos meteorológicos de más de 4000 aeropuertos (mensajes METAR y TAF).

Los puntos amarillos y rojos representan las estaciones disponibles.

Ponga el ratón en el punto deseado para ver el nombre de la estación.

Haga clic para ver las observaciones y los pronósticos meteorológicos.

Para cambiar el mapa : haga clic en los botones verdes con una cruz de color negro para hacer un zoom, en el botón verde con un guión para alejar o en las flechas verdes para mapas adyacentes.


METAR-TAF: